Big Bend, California
Current Conditions -  °F | °C
As of 11:05 PM on Friday 19 Dec 2014 (Local Time) from KMHS Reporting Station
Light Rain Light Rain  
Wind Chill: 39°   Ceiling: 3400
Heat Index: 42°   Visibility: 10mi
Dew Point: 39°   Wind: 5mph
Humidity: 89%   Direction: NA
Pressure: 30.05"   Gusts: NA
Location:  41.02°N, 121.91°W
Report Text: KMHS 200705Z AUTO VRB04KT 10SM -RA SCT007 OVC034 06/04 A3005 RMK AO2 RAB00 P0000 T00560039
Loading
Personal Weather Stations






























Interactive Weather Map New forecast layout! Learn more

10-Day Weather Forecast

Advertisements
Track Severe Weather on mobile